createdAt,value
2019-02-05T00:01:05.902Z,4.85
2019-02-05T00:03:35.237Z,4.12
2019-02-05T00:06:04.754Z,4.45
2019-02-05T00:08:34.026Z,3.35
2019-02-05T00:11:03.340Z,3.87
2019-02-05T00:13:32.662Z,4.70
2019-02-05T00:16:02.021Z,11.35
2019-02-05T00:18:31.322Z,3.98
2019-02-05T00:21:00.555Z,4.78
2019-02-05T00:23:29.955Z,5.58
2019-02-05T00:26:05.968Z,5.30
2019-02-05T00:28:30.276Z,3.67
2019-02-05T00:30:59.562Z,4.70
2019-02-05T00:33:28.904Z,8.70
2019-02-05T00:35:58.222Z,3.83
2019-02-05T00:38:28.004Z,4.37
2019-02-05T00:40:57.243Z,6.92
2019-02-05T00:43:26.983Z,9.50
2019-02-05T00:45:56.311Z,9.43
2019-02-05T00:48:25.549Z,4.90
2019-02-05T00:50:54.792Z,4.15
2019-02-05T00:53:24.434Z,6.10
2019-02-05T00:55:53.752Z,6.03
2019-02-05T00:58:23.059Z,4.70
2019-02-05T01:00:52.518Z,7.62
2019-02-05T01:03:21.772Z,4.95
2019-02-05T01:05:51.097Z,5.60
2019-02-05T01:08:20.952Z,4.78
2019-02-05T01:10:50.193Z,7.95
2019-02-05T01:13:19.464Z,5.33
2019-02-05T01:15:48.821Z,5.12
2019-02-05T01:18:17.978Z,6.50
2019-02-05T01:20:47.308Z,4.22
2019-02-05T01:23:17.044Z,5.17
2019-02-05T01:25:46.274Z,5.15
2019-02-05T01:28:15.584Z,10.35
2019-02-05T01:30:44.936Z,6.85
2019-02-05T01:33:14.188Z,7.53
2019-02-05T01:35:43.518Z,8.65
2019-02-05T01:38:12.853Z,6.05
2019-02-05T01:40:42.187Z,6.22
2019-02-05T01:43:11.425Z,7.10
2019-02-05T01:45:41.754Z,6.87
2019-02-05T01:48:11.074Z,5.62
2019-02-05T01:50:40.443Z,9.53
2019-02-05T01:53:09.704Z,6.60
2019-02-05T01:55:38.942Z,9.13
2019-02-05T01:58:08.255Z,5.05
2019-02-05T02:00:39.208Z,4.87
2019-02-05T02:03:08.785Z,10.50
2019-02-05T02:05:37.961Z,6.90
2019-02-05T02:08:07.972Z,5.25
2019-02-05T02:10:37.211Z,8.98
2019-02-05T02:13:06.528Z,8.30
2019-02-05T02:15:35.882Z,6.95
2019-02-05T02:18:05.396Z,7.35
2019-02-05T02:20:34.707Z,7.87
2019-02-05T02:23:04.348Z,9.78
2019-02-05T02:25:33.782Z,7.75
2019-02-05T02:28:03.011Z,7.25
2019-02-05T02:30:37.549Z,11.53
2019-02-05T02:33:07.315Z,13.20
2019-02-05T02:35:36.747Z,7.83
2019-02-05T02:38:06.341Z,6.55
2019-02-05T02:40:36.008Z,7.30
2019-02-05T02:43:05.363Z,8.75
2019-02-05T02:45:34.622Z,7.58
2019-02-05T02:48:04.383Z,7.28
2019-02-05T02:50:33.873Z,12.25
2019-02-05T02:53:03.221Z,10.23
2019-02-05T02:55:32.529Z,9.23
2019-02-05T02:58:01.756Z,10.63
2019-02-05T03:00:31.016Z,12.70
2019-02-05T03:03:00.339Z,8.20
2019-02-05T03:05:29.994Z,11.50
2019-02-05T03:07:59.260Z,11.63
2019-02-05T03:10:30.193Z,14.43
2019-02-05T03:12:59.807Z,7.00
2019-02-05T03:15:29.092Z,9.90
2019-02-05T03:18:00.018Z,13.05
2019-02-05T03:20:29.255Z,8.30
2019-02-05T03:22:58.526Z,15.48
2019-02-05T03:25:27.752Z,10.13
2019-02-05T03:27:57.206Z,14.80
2019-02-05T03:30:26.555Z,7.75
2019-02-05T03:32:56.013Z,9.70
2019-02-05T03:35:25.338Z,10.18
2019-02-05T03:37:54.668Z,9.68
2019-02-05T03:41:16.781Z,9.20
2019-02-05T03:43:46.447Z,10.03
2019-02-05T03:46:17.061Z,7.42
2019-02-05T03:48:49.098Z,12.80
2019-02-05T03:51:58.542Z,9.38
2019-02-05T03:55:10.301Z,8.30
2019-02-05T03:58:04.993Z,9.45
2019-02-05T04:01:33.500Z,12.63
2019-02-05T04:04:43.900Z,41.65
2019-02-05T04:07:54.467Z,9.53
2019-02-05T04:11:16.816Z,8.03
2019-02-05T04:14:39.389Z,12.95
2019-02-05T04:17:41.167Z,7.95
2019-02-05T04:20:51.784Z,9.00
2019-02-05T04:24:13.957Z,9.90
2019-02-05T04:27:26.642Z,11.63
2019-02-05T04:30:58.208Z,9.58
2019-02-05T04:33:45.356Z,11.43
2019-02-05T04:37:09.392Z,10.20
2019-02-05T04:40:29.512Z,11.08
2019-02-05T04:43:37.085Z,10.88
2019-02-05T04:46:48.112Z,9.45
2019-02-05T04:49:55.622Z,12.85
2019-02-05T04:52:56.351Z,12.82
2019-02-05T04:56:09.722Z,11.45
2019-02-05T04:59:10.434Z,8.53
2019-02-05T05:02:21.095Z,6.87
2019-02-05T05:05:23.606Z,14.90
2019-02-05T05:08:40.375Z,8.85
2019-02-05T05:11:09.636Z,10.23
2019-02-05T05:13:38.952Z,15.00
2019-02-05T05:16:08.221Z,9.33
2019-02-05T05:18:37.726Z,21.02
2019-02-05T05:21:07.032Z,10.63
2019-02-05T05:23:36.368Z,8.58
2019-02-05T05:26:05.696Z,9.00
2019-02-05T05:28:36.917Z,9.00
2019-02-05T05:31:06.215Z,14.07
2019-02-05T05:33:35.473Z,10.25
2019-02-05T05:36:04.837Z,12.68
2019-02-05T05:38:34.104Z,13.25
2019-02-05T05:41:03.391Z,12.65
2019-02-05T05:43:33.049Z,9.10
2019-02-05T05:46:02.328Z,7.87
2019-02-05T05:48:31.603Z,9.60
2019-02-05T05:51:00.909Z,9.93
2019-02-05T05:53:30.185Z,16.45
2019-02-05T05:55:59.507Z,37.67
2019-02-05T05:58:28.877Z,9.58
2019-02-05T06:00:58.441Z,11.25
2019-02-05T06:03:27.765Z,9.28
2019-02-05T06:05:57.004Z,10.10
2019-02-05T06:08:26.345Z,11.45
2019-02-05T06:10:55.682Z,8.13
2019-02-05T06:13:24.904Z,9.38
2019-02-05T06:15:54.579Z,10.35
2019-02-05T06:18:23.890Z,11.38
2019-02-05T06:20:53.163Z,9.85
2019-02-05T06:23:22.634Z,13.55
2019-02-05T06:25:51.962Z,15.00
2019-02-05T06:28:21.273Z,9.48
2019-02-05T06:30:50.627Z,13.90
2019-02-05T06:33:23.494Z,9.50
2019-02-05T06:35:50.837Z,12.45
2019-02-05T06:38:20.131Z,14.98
2019-02-05T06:40:49.359Z,9.10
2019-02-05T06:43:18.598Z,13.75
2019-02-05T06:45:47.874Z,11.97
2019-02-05T06:48:17.691Z,13.38
2019-02-05T06:50:47.017Z,11.25
2019-02-05T06:53:16.349Z,13.83
2019-02-05T06:55:45.580Z,15.32
2019-02-05T06:58:14.827Z,12.50
2019-02-05T07:00:44.109Z,15.90
2019-02-05T07:03:13.511Z,11.12
2019-02-05T07:05:42.905Z,20.97
2019-02-05T07:08:12.225Z,13.85
2019-02-05T07:10:41.831Z,9.68
2019-02-05T07:13:11.425Z,12.00
2019-02-05T07:15:40.912Z,11.10
2019-02-05T07:18:10.315Z,13.03
2019-02-05T07:20:39.675Z,13.45
2019-02-05T07:23:08.992Z,12.75
2019-02-05T07:25:38.395Z,19.25
2019-02-05T07:28:07.687Z,11.08
2019-02-05T07:30:37.015Z,13.10
2019-02-05T07:33:06.378Z,11.45
2019-02-05T07:35:36.053Z,12.10
2019-02-05T07:38:05.941Z,11.43
2019-02-05T07:40:35.270Z,14.10
2019-02-05T07:43:04.955Z,11.18
2019-02-05T07:45:34.266Z,11.10
2019-02-05T07:48:03.641Z,12.05
2019-02-05T07:50:33.018Z,12.20
2019-02-05T07:53:02.339Z,12.23
2019-02-05T07:55:31.717Z,16.42
2019-02-05T07:58:01.905Z,14.95
2019-02-05T08:00:31.251Z,13.68
2019-02-05T08:03:00.591Z,14.03
2019-02-05T08:05:32.145Z,12.47
2019-02-05T08:08:02.070Z,16.73
2019-02-05T08:10:32.196Z,15.78
2019-02-05T08:13:01.504Z,15.32
2019-02-05T08:15:32.525Z,13.05
2019-02-05T08:18:01.971Z,16.67
2019-02-05T08:20:31.415Z,14.07
2019-02-05T08:23:00.875Z,15.05
2019-02-05T08:25:30.142Z,14.65
2019-02-05T08:28:00.044Z,13.20
2019-02-05T08:30:32.006Z,17.95
2019-02-05T08:33:01.427Z,16.20
2019-02-05T08:35:30.791Z,12.98
2019-02-05T08:38:00.232Z,18.62
2019-02-05T08:40:29.917Z,15.00
2019-02-05T08:42:59.301Z,14.60
2019-02-05T08:45:30.032Z,14.73
2019-02-05T08:47:59.411Z,23.25
2019-02-05T08:50:29.081Z,16.50
2019-02-05T08:52:58.414Z,18.75
2019-02-05T08:55:30.791Z,13.03
2019-02-05T08:58:01.464Z,16.30
2019-02-05T09:00:33.559Z,15.65
2019-02-05T09:03:03.252Z,19.02
2019-02-05T09:05:33.020Z,19.05
2019-02-05T09:08:02.360Z,16.48
2019-02-05T09:10:34.227Z,16.70
2019-02-05T09:13:03.544Z,14.03
2019-02-05T09:15:33.271Z,15.68
2019-02-05T09:18:02.992Z,15.88
2019-02-05T09:20:32.367Z,13.53
2019-02-05T09:23:02.200Z,14.15
2019-02-05T09:25:31.564Z,12.43
2019-02-05T09:28:01.385Z,19.52
2019-02-05T09:30:32.568Z,16.73
2019-02-05T09:33:05.476Z,15.95
2019-02-05T09:35:34.855Z,17.55
2019-02-05T09:38:04.462Z,17.48
2019-02-05T09:40:34.476Z,17.82
2019-02-05T09:43:03.785Z,16.80
2019-02-05T09:45:34.009Z,18.23
2019-02-05T09:48:03.445Z,15.85
2019-02-05T09:50:43.821Z,15.30
2019-02-05T09:53:03.836Z,21.15
2019-02-05T09:55:36.039Z,17.30
2019-02-05T09:58:04.480Z,17.65
2019-02-05T10:00:36.194Z,28.62
2019-02-05T10:03:06.762Z,14.75
2019-02-05T10:05:36.825Z,15.48
2019-02-05T10:08:06.912Z,18.35
2019-02-05T10:10:36.305Z,18.05
2019-02-05T10:13:06.576Z,19.07
2019-02-05T10:15:37.919Z,17.45
2019-02-05T10:18:08.729Z,15.30
2019-02-05T10:20:38.094Z,14.45
2019-02-05T10:23:09.293Z,17.42
2019-02-05T10:25:39.091Z,13.78
2019-02-05T10:28:08.636Z,19.17
2019-02-05T10:30:43.463Z,27.45
2019-02-05T10:33:13.432Z,24.65
2019-02-05T10:35:43.744Z,15.00
2019-02-05T10:38:13.300Z,38.15
2019-02-05T10:40:42.614Z,25.68
2019-02-05T10:43:12.102Z,17.42
2019-02-05T10:45:41.647Z,22.80
2019-02-05T10:48:11.454Z,21.80
2019-02-05T10:50:40.785Z,20.37
2019-02-05T10:53:10.156Z,17.55
2019-02-05T10:55:39.594Z,17.23
2019-02-05T10:58:09.772Z,22.13
2019-02-05T11:00:40.035Z,25.17
2019-02-05T11:03:10.285Z,17.32
2019-02-05T11:05:39.677Z,24.87
2019-02-05T11:08:09.627Z,23.02
2019-02-05T11:10:39.313Z,19.40
2019-02-05T11:13:08.981Z,22.00
2019-02-05T11:15:38.662Z,23.50
2019-02-05T11:18:10.575Z,19.60
2019-02-05T11:20:40.973Z,25.45
2019-02-05T11:23:10.527Z,19.30
2019-02-05T11:25:40.450Z,22.05
2019-02-05T11:28:10.063Z,19.30
2019-02-05T11:30:44.926Z,21.42
2019-02-05T11:33:14.656Z,26.75
2019-02-05T11:35:44.354Z,23.90
2019-02-05T11:38:14.218Z,18.17
2019-02-05T11:40:44.098Z,19.65
2019-02-05T11:43:13.571Z,22.82
2019-02-05T11:45:43.324Z,19.57
2019-02-05T11:48:17.868Z,17.30
2019-02-05T11:50:47.655Z,17.85
2019-02-05T11:53:17.032Z,19.30
2019-02-05T11:55:46.414Z,32.55
2019-02-05T11:58:16.639Z,17.65
2019-02-05T12:01:03.256Z,20.82
2019-02-05T12:03:32.684Z,20.70
2019-02-05T12:06:02.060Z,19.23
2019-02-05T12:08:31.360Z,15.00
2019-02-05T12:11:00.691Z,15.55
2019-02-05T12:13:29.990Z,19.98
2019-02-05T12:15:59.354Z,16.75
2019-02-05T12:18:28.804Z,17.87
2019-02-05T12:20:58.119Z,19.25
2019-02-05T12:23:28.026Z,16.17
2019-02-05T12:25:57.438Z,19.82
2019-02-05T12:28:26.765Z,16.32
2019-02-05T12:30:56.204Z,20.08
2019-02-05T12:33:26.129Z,20.62
2019-02-05T12:35:55.522Z,15.15
2019-02-05T12:38:24.870Z,18.20
2019-02-05T12:40:54.455Z,15.65
2019-02-05T12:43:23.837Z,13.65
2019-02-05T12:45:53.214Z,18.60
2019-02-05T12:48:22.549Z,20.25
2019-02-05T12:50:51.928Z,16.48
2019-02-05T12:53:21.289Z,14.73
2019-02-05T12:55:50.612Z,13.83
2019-02-05T12:58:19.920Z,24.12
2019-02-05T13:00:58.865Z,11.70
2019-02-05T13:03:23.365Z,15.75
2019-02-05T13:05:52.964Z,23.18
2019-02-05T13:08:22.264Z,14.95
2019-02-05T13:10:53.236Z,14.50
2019-02-05T13:13:22.838Z,16.32
2019-02-05T13:15:52.419Z,15.83
2019-02-05T13:18:22.242Z,12.43
2019-02-05T13:20:51.663Z,14.65
2019-02-05T13:23:21.081Z,13.43
2019-02-05T13:25:50.478Z,11.97
2019-02-05T13:28:20.098Z,15.50
2019-02-05T13:30:49.491Z,11.55
2019-02-05T13:33:19.503Z,16.45
2019-02-05T13:35:50.691Z,19.25
2019-02-05T13:38:20.386Z,17.35
2019-02-05T13:40:50.109Z,15.13
2019-02-05T13:43:19.504Z,13.98
2019-02-05T13:45:49.204Z,17.65
2019-02-05T13:48:18.757Z,15.05
2019-02-05T13:50:48.141Z,21.62
2019-02-05T13:53:17.507Z,11.80
2019-02-05T13:55:47.366Z,16.23
2019-02-05T13:58:16.950Z,13.25
2019-02-05T14:00:48.354Z,13.60
2019-02-05T14:03:17.962Z,17.05
2019-02-05T14:05:47.571Z,15.95
2019-02-05T14:08:16.871Z,14.55
2019-02-05T14:10:46.759Z,12.47
2019-02-05T14:13:16.155Z,11.95
2019-02-05T14:15:47.815Z,10.98
2019-02-05T14:18:17.161Z,10.55
2019-02-05T14:20:46.452Z,14.00
2019-02-05T14:23:15.774Z,13.03
2019-02-05T14:25:45.103Z,9.03
2019-02-05T14:28:14.477Z,11.30
2019-02-05T14:30:50.734Z,12.55
2019-02-05T14:33:20.275Z,11.28
2019-02-05T14:35:49.592Z,10.38
2019-02-05T14:38:19.354Z,9.85
2019-02-05T14:40:48.705Z,16.35
2019-02-05T14:43:18.082Z,10.35
2019-02-05T14:45:47.977Z,15.45
2019-02-05T14:48:17.284Z,11.83
2019-02-05T14:50:47.462Z,12.93
2019-02-05T14:53:16.861Z,9.88
2019-02-05T14:55:46.172Z,13.35
2019-02-05T14:58:16.699Z,9.70
2019-02-05T15:00:46.134Z,11.50
2019-02-05T15:03:16.115Z,8.60
2019-02-05T15:05:46.735Z,12.23
2019-02-05T15:08:17.863Z,13.95
2019-02-05T15:10:47.345Z,11.22
2019-02-05T15:13:17.157Z,13.43
2019-02-05T15:15:46.779Z,9.08
2019-02-05T15:18:21.689Z,10.80
2019-02-05T15:20:51.534Z,12.58
2019-02-05T15:23:21.794Z,13.53
2019-02-05T15:25:51.671Z,8.85
2019-02-05T15:28:21.070Z,10.18
2019-02-05T15:30:50.457Z,14.00
2019-02-05T15:33:32.611Z,13.45
2019-02-05T15:36:20.951Z,13.13
2019-02-05T15:38:51.964Z,10.63
2019-02-05T15:41:21.445Z,8.85
2019-02-05T15:43:50.765Z,10.00
2019-02-05T15:46:20.395Z,12.58
2019-02-05T15:48:50.345Z,12.20
2019-02-05T15:51:19.722Z,9.40
2019-02-05T15:53:49.169Z,9.53
2019-02-05T15:56:18.592Z,9.13
2019-02-05T15:58:47.847Z,10.00
2019-02-05T16:01:17.176Z,10.48
2019-02-05T16:03:46.984Z,7.45
2019-02-05T16:06:16.354Z,8.98
2019-02-05T16:08:45.818Z,8.20
2019-02-05T16:11:15.132Z,10.93
2019-02-05T16:13:44.486Z,11.88
2019-02-05T16:16:13.911Z,10.10
2019-02-05T16:18:43.725Z,10.88
2019-02-05T16:21:13.137Z,13.65
2019-02-05T16:23:42.653Z,12.43
2019-02-05T16:26:12.295Z,11.05
2019-02-05T16:28:41.536Z,10.63
2019-02-05T16:31:10.901Z,9.03
2019-02-05T16:33:40.804Z,10.48
2019-02-05T16:36:10.226Z,9.25
2019-02-05T16:38:39.647Z,14.43
2019-02-05T16:41:10.614Z,10.72
2019-02-05T16:43:40.062Z,10.45
2019-02-05T16:46:09.487Z,10.35
2019-02-05T16:48:39.434Z,10.10
2019-02-05T16:51:08.961Z,16.67
2019-02-05T16:53:38.604Z,9.80
2019-02-05T16:56:08.070Z,11.15
2019-02-05T16:58:37.418Z,11.25
2019-02-05T17:01:06.963Z,11.65
2019-02-05T17:03:36.967Z,11.70
2019-02-05T17:06:07.026Z,9.93
2019-02-05T17:08:36.436Z,13.05
2019-02-05T17:11:05.849Z,11.03
2019-02-05T17:13:35.240Z,11.65
2019-02-05T17:16:05.252Z,10.80
2019-02-05T17:18:35.044Z,10.80
2019-02-05T17:21:04.670Z,11.43
2019-02-05T17:23:34.491Z,14.70
2019-02-05T17:26:04.130Z,10.93
2019-02-05T17:28:33.455Z,11.80
2019-02-05T17:31:03.220Z,12.20
2019-02-05T17:33:32.614Z,12.03
2019-02-05T17:36:02.010Z,13.25
2019-02-05T17:38:31.370Z,10.32
2019-02-05T17:41:00.764Z,14.28
2019-02-05T17:43:30.236Z,11.75
2019-02-05T17:46:00.246Z,10.38
2019-02-05T17:48:29.753Z,11.35
2019-02-05T17:50:59.167Z,11.57
2019-02-05T17:53:28.574Z,10.85
2019-02-05T17:55:57.964Z,10.80
2019-02-05T17:58:27.408Z,12.47
2019-02-05T18:01:01.293Z,13.70
2019-02-05T18:03:30.669Z,9.90
2019-02-05T18:06:00.064Z,10.18
2019-02-05T18:08:29.932Z,10.95
2019-02-05T18:10:59.423Z,13.65
2019-02-05T18:13:28.813Z,10.72
2019-02-05T18:16:00.225Z,11.05
2019-02-05T18:18:29.871Z,12.70
2019-02-05T18:20:59.181Z,11.33
2019-02-05T18:23:28.999Z,10.55
2019-02-05T18:25:58.454Z,11.75
2019-02-05T18:28:30.802Z,12.45
2019-02-05T18:30:59.038Z,13.83
2019-02-05T18:33:28.435Z,10.32
2019-02-05T18:35:58.090Z,10.15
2019-02-05T18:38:27.396Z,10.35
2019-02-05T18:40:56.819Z,11.97
2019-02-05T18:43:26.325Z,14.38
2019-02-05T18:45:57.363Z,11.43
2019-02-05T18:48:27.109Z,11.88
2019-02-05T18:50:56.518Z,12.15
2019-02-05T18:53:25.937Z,14.40
2019-02-05T18:55:55.572Z,10.85
2019-02-05T18:58:26.812Z,10.18
2019-02-05T19:00:57.565Z,10.65
2019-02-05T19:03:26.996Z,7.53
2019-02-05T19:05:56.467Z,7.70
2019-02-05T19:08:25.890Z,8.75
2019-02-05T19:10:55.374Z,7.40
2019-02-05T19:13:24.624Z,6.15
2019-02-05T19:15:53.974Z,6.62
2019-02-05T19:18:23.421Z,7.60
2019-02-05T19:20:52.813Z,6.03
2019-02-05T19:23:22.256Z,6.33
2019-02-05T19:25:57.255Z,5.75
2019-02-05T19:28:31.804Z,5.62
2019-02-05T19:31:09.330Z,5.35
2019-02-05T19:33:38.727Z,7.25
2019-02-05T19:36:08.110Z,5.15
2019-02-05T19:38:37.532Z,6.40
2019-02-05T19:41:07.319Z,5.75
2019-02-05T19:43:36.726Z,6.87
2019-02-05T19:46:37.010Z,5.95
2019-02-05T19:49:25.597Z,7.90
2019-02-05T19:51:55.023Z,11.28
2019-02-05T19:54:25.092Z,5.90
2019-02-05T19:56:54.683Z,6.85
2019-02-05T19:59:24.913Z,7.50
2019-02-05T20:01:54.303Z,8.10
2019-02-05T20:04:24.297Z,4.92
2019-02-05T20:06:54.041Z,4.92
2019-02-05T20:09:23.440Z,5.53
2019-02-05T20:11:52.853Z,5.78
2019-02-05T20:14:22.731Z,6.08
2019-02-05T20:16:52.125Z,9.45
2019-02-05T20:19:24.626Z,6.17
2019-02-05T20:21:53.108Z,6.37
2019-02-05T20:24:22.607Z,5.60
2019-02-05T20:26:52.011Z,6.80
2019-02-05T20:29:21.508Z,6.20
2019-02-05T20:31:50.796Z,5.83
2019-02-05T20:34:20.256Z,6.28
2019-02-05T20:36:49.816Z,6.33
2019-02-05T20:39:19.875Z,6.50
2019-02-05T20:41:50.566Z,7.90
2019-02-05T20:44:20.209Z,8.08
2019-02-05T20:46:49.634Z,7.33
2019-02-05T20:49:19.040Z,6.37
2019-02-05T20:51:48.864Z,5.85
2019-02-05T20:54:18.892Z,5.65
2019-02-05T20:56:48.362Z,6.72
2019-02-05T20:59:17.831Z,6.10
2019-02-05T21:01:47.244Z,7.58
2019-02-05T21:04:16.639Z,8.95
2019-02-05T21:06:46.161Z,6.28
2019-02-05T21:09:17.702Z,9.40
2019-02-05T21:11:47.647Z,7.53
2019-02-05T21:14:17.119Z,5.30
2019-02-05T21:16:46.983Z,5.50
2019-02-05T21:19:16.361Z,6.17
2019-02-05T21:21:45.689Z,6.22
2019-02-05T21:24:14.979Z,7.85
2019-02-05T21:26:44.303Z,7.97
2019-02-05T21:29:13.810Z,7.00
2019-02-05T21:31:43.209Z,10.90
2019-02-05T21:34:15.787Z,8.70
2019-02-05T21:36:43.690Z,9.15
2019-02-05T21:39:13.687Z,6.45
2019-02-05T21:41:43.089Z,8.70
2019-02-05T21:44:12.540Z,8.28
2019-02-05T21:46:41.928Z,9.23
2019-02-05T21:49:11.423Z,14.78
2019-02-05T21:51:43.169Z,7.62
2019-02-05T21:54:12.411Z,7.65
2019-02-05T21:56:41.809Z,8.20
2019-02-05T21:59:11.152Z,9.05
2019-02-05T22:01:40.532Z,8.90
2019-02-05T22:04:10.346Z,12.68
2019-02-05T22:06:40.139Z,10.75
2019-02-05T22:09:12.296Z,7.45
2019-02-05T22:11:41.684Z,8.43
2019-02-05T22:14:11.257Z,11.33
2019-02-05T22:16:40.722Z,9.80
2019-02-05T22:19:10.898Z,13.53
2019-02-05T22:21:40.346Z,8.28
2019-02-05T22:24:09.654Z,13.48
2019-02-05T22:26:38.965Z,9.50
2019-02-05T22:29:09.108Z,13.40
2019-02-05T22:31:38.389Z,8.55
2019-02-05T22:34:08.311Z,9.48
2019-02-05T22:36:37.663Z,12.53
2019-02-05T22:39:09.917Z,11.68
2019-02-05T22:41:39.366Z,10.68
2019-02-05T22:44:08.796Z,10.53
2019-02-05T22:46:38.508Z,10.18
2019-02-05T22:49:07.880Z,13.58
2019-02-05T22:51:37.586Z,9.95
2019-02-05T22:54:06.970Z,12.23
2019-02-05T22:56:36.326Z,10.95
2019-02-05T22:59:06.427Z,10.08
2019-02-05T23:01:53.202Z,7.90
2019-02-05T23:04:59.399Z,8.33
2019-02-05T23:07:30.126Z,8.00
2019-02-05T23:10:30.256Z,9.00
2019-02-05T23:13:06.196Z,9.25
2019-02-05T23:15:36.264Z,9.65
2019-02-05T23:18:06.660Z,10.93
2019-02-05T23:20:35.886Z,12.53
2019-02-05T23:23:05.850Z,7.87
2019-02-05T23:25:35.157Z,8.13
2019-02-05T23:28:04.807Z,11.08
2019-02-05T23:30:34.398Z,11.68
2019-02-05T23:33:04.337Z,12.00
2019-02-05T23:35:33.673Z,12.65
2019-02-05T23:38:03.021Z,8.33
2019-02-05T23:40:32.375Z,12.13
2019-02-05T23:43:01.625Z,12.23
2019-02-05T23:45:30.932Z,11.68
2019-02-05T23:48:00.166Z,15.98
2019-02-05T23:50:29.567Z,13.40
2019-02-05T23:52:58.847Z,10.82
2019-02-05T23:55:28.210Z,10.75
2019-02-05T23:57:57.441Z,14.93
